Time,TemperatureF,DewpointF,PressureIn,WindDirection,WindDirectionDegrees,WindSpeedMPH,WindSpeedGustMPH,Humidity,HourlyPrecipIn,Conditions,Clouds,dailyrainin,SolarRadiationWatts/m^2,SoftwareType,DateUTC
2013-08-30 00:02:00,64.0,50.0,30.25,NNE,12,2.0,5.0,62,-99.99,,,-99.99,0.000000,,2013-08-30 07:02:00,
2013-08-30 00:10:00,63.0,52.0,30.26,SE,141,1.0,2.0,67,-99.99,,,-99.99,0.000000,,2013-08-30 07:10:00,
2013-08-30 00:53:00,63.0,52.0,30.26,SE,141,1.0,2.0,67,-99.99,,,-99.99,0.000000,,2013-08-30 07:53:00,
2013-08-30 01:03:00,63.0,52.0,30.26,SE,141,1.0,2.0,67,-99.99,,,-99.99,0.000000,,2013-08-30 08:03:00,
2013-08-30 17:10:00,85.0,46.0,30.13,SW,228,7.0,11.0,26,-99.99,,,-99.99,160.000000,,2013-08-31 00:10:00,
2013-08-30 17:52:00,85.0,46.0,30.13,SW,228,7.0,11.0,26,-99.99,,,-99.99,160.000000,,2013-08-31 00:52:00,
2013-08-30 18:01:00,85.0,46.0,30.13,SW,228,7.0,11.0,26,-99.99,,,-99.99,160.000000,,2013-08-31 01:01:00,
2013-08-30 18:10:00,86.0,44.0,30.13,South,174,8.0,12.0,23,-99.99,,,-99.99,200.000000,,2013-08-31 01:10:00,
2013-08-30 19:10:00,74.0,50.0,30.13,SE,128,5.0,9.0,42,-99.99,,,-99.99,0.000000,,2013-08-31 02:10:00,
2013-08-30 20:10:00,72.0,54.0,30.16,NNE,14,4.0,8.0,53,-99.99,,,-99.99,0.000000,,2013-08-31 03:10:00,
2013-08-30 20:54:00,72.0,54.0,30.16,NNE,14,4.0,8.0,53,-99.99,,,-99.99,0.000000,,2013-08-31 03:54:00,
2013-08-30 21:05:00,72.0,54.0,30.16,NNE,14,4.0,8.0,53,-99.99,,,-99.99,0.000000,,2013-08-31 04:05:00,
2013-08-30 21:10:00,74.0,50.0,30.17,North,7,4.0,8.0,43,-99.99,,,-99.99,0.000000,,2013-08-31 04:10:00,
2013-08-30 21:54:00,74.0,50.0,30.17,North,7,4.0,8.0,43,-99.99,,,-99.99,0.000000,,2013-08-31 04:54:00,
2013-08-30 22:04:00,74.0,50.0,30.17,North,7,4.0,8.0,43,-99.99,,,-99.99,0.000000,,2013-08-31 05:04:00,
2013-08-30 22:10:00,74.0,49.0,30.19,WNW,303,6.0,9.0,41,-99.99,,,-99.99,0.000000,,2013-08-31 05:10:00,
2013-08-30 22:52:00,74.0,49.0,30.19,WNW,303,6.0,9.0,41,-99.99,,,-99.99,0.000000,,2013-08-31 05:52:00,
2013-08-30 23:02:00,74.0,49.0,30.19,WNW,303,6.0,9.0,41,-99.99,,,-99.99,0.000000,,2013-08-31 06:02:00,
2013-08-30 23:10:00,69.0,51.0,30.20,NW,307,4.0,5.0,53,-99.99,,,-99.99,0.000000,,2013-08-31 06:10:00,
2013-08-30 23:52:00,69.0,51.0,30.20,NW,307,4.0,5.0,53,-99.99,,,-99.99,0.000000,,2013-08-31 06:52:00,